Tipton, Wyoming
Current Conditions -  °F | °C
As of 6:53 PM on Saturday 20 Dec 2014 (Local Time) from KRWL Reporting Station
Overcast Overcast  
Wind Chill: 17°   Ceiling: 2300
Heat Index: 30°   Visibility: 9mi
Dew Point: 25°   Wind: 22mph
Humidity: 82%   Direction: 240°WSW
Pressure: 29.95"   Gusts: 26mph
Location:  41.6289°N, 108.096°W
Report Text: KRWL 210153Z AUTO 24019G23KT 9SM BKN023 OVC033 M01/M04 A2995 RMK AO2 SNE51 SLP158 P0000 T10111039
Loading
Personal Weather Stations






























Interactive Weather Map New forecast layout! Learn more

10-Day Weather Forecast

Advertisements
Track Severe Weather on mobile